sensor_id;sensor_type;location;lat;lon;timestamp;P1;durP1;ratioP1;P2;durP2;ratioP2
15878;SDS011;61999;51.514;14.614;2023-09-30T00:02:14;10.20;;;5.47;;
15878;SDS011;61999;51.514;14.614;2023-09-30T00:04:47;8.13;;;4.97;;
15878;SDS011;61999;51.514;14.614;2023-09-30T00:07:25;8.57;;;4.43;;
15878;SDS011;61999;51.514;14.614;2023-09-30T00:09:59;7.33;;;4.67;;
15878;SDS011;61999;51.514;14.614;2023-09-30T00:12:37;9.97;;;4.60;;
15878;SDS011;61999;51.514;14.614;2023-09-30T00:15:13;7.50;;;4.67;;
15878;SDS011;61999;51.514;14.614;2023-09-30T00:17:46;6.33;;;4.37;;
15878;SDS011;61999;51.514;14.614;2023-09-30T00:20:20;6.50;;;4.43;;
15878;SDS011;61999;51.514;14.614;2023-09-30T00:22:54;4.93;;;3.37;;
15878;SDS011;61999;51.514;14.614;2023-09-30T00:25:27;7.37;;;3.90;;
15878;SDS011;61999;51.514;14.614;2023-09-30T00:28:00;7.40;;;3.70;;
15878;SDS011;61999;51.514;14.614;2023-09-30T00:30:35;10.67;;;5.10;;
15878;SDS011;61999;51.514;14.614;2023-09-30T00:33:11;9.43;;;4.63;;
15878;SDS011;61999;51.514;14.614;2023-09-30T00:35:43;9.07;;;4.37;;
15878;SDS011;61999;51.514;14.614;2023-09-30T00:38:17;7.17;;;3.87;;
15878;SDS011;61999;51.514;14.614;2023-09-30T00:40:52;7.20;;;4.37;;
15878;SDS011;61999;51.514;14.614;2023-09-30T00:43:21;7.60;;;4.90;;
15878;SDS011;61999;51.514;14.614;2023-09-30T00:46:02;7.30;;;4.53;;
15878;SDS011;61999;51.514;14.614;2023-09-30T00:48:53;9.00;;;5.07;;
15878;SDS011;61999;51.514;14.614;2023-09-30T00:51:29;8.00;;;5.00;;
15878;SDS011;61999;51.514;14.614;2023-09-30T00:54:05;9.03;;;4.63;;
15878;SDS011;61999;51.514;14.614;2023-09-30T00:56:39;4.60;;;3.70;;
15878;SDS011;61999;51.514;14.614;2023-09-30T00:59:17;6.83;;;4.60;;
15878;SDS011;61999;51.514;14.614;2023-09-30T01:01:53;5.03;;;3.70;;
15878;SDS011;61999;51.514;14.614;2023-09-30T01:04:29;7.67;;;4.30;;
15878;SDS011;61999;51.514;14.614;2023-09-30T01:07:02;6.37;;;3.93;;
15878;SDS011;61999;51.514;14.614;2023-09-30T01:09:38;7.10;;;4.43;;
15878;SDS011;61999;51.514;14.614;2023-09-30T01:12:14;7.17;;;4.43;;
15878;SDS011;61999;51.514;14.614;2023-09-30T01:14:56;8.90;;;4.93;;
15878;SDS011;61999;51.514;14.614;2023-09-30T01:17:36;5.67;;;4.03;;
15878;SDS011;61999;51.514;14.614;2023-09-30T01:20:10;6.27;;;4.00;;
15878;SDS011;61999;51.514;14.614;2023-09-30T01:22:49;9.03;;;4.23;;
15878;SDS011;61999;51.514;14.614;2023-09-30T01:25:29;6.23;;;3.93;;
15878;SDS011;61999;51.514;14.614;2023-09-30T01:28:11;8.17;;;4.57;;
15878;SDS011;61999;51.514;14.614;2023-09-30T01:30:42;4.83;;;3.87;;
15878;SDS011;61999;51.514;14.614;2023-09-30T01:33:13;7.07;;;4.50;;
15878;SDS011;61999;51.514;14.614;2023-09-30T01:35:47;7.23;;;3.70;;
15878;SDS011;61999;51.514;14.614;2023-09-30T01:38:23;7.47;;;4.10;;
15878;SDS011;61999;51.514;14.614;2023-09-30T01:40:58;5.80;;;3.87;;
15878;SDS011;61999;51.514;14.614;2023-09-30T01:43:42;4.67;;;3.50;;
15878;SDS011;61999;51.514;14.614;2023-09-30T01:46:22;5.17;;;3.30;;
15878;SDS011;61999;51.514;14.614;2023-09-30T01:48:52;4.00;;;2.87;;
15878;SDS011;61999;51.514;14.614;2023-09-30T01:51:28;4.50;;;3.00;;
15878;SDS011;61999;51.514;14.614;2023-09-30T01:54:02;3.73;;;2.30;;
15878;SDS011;61999;51.514;14.614;2023-09-30T01:56:40;2.77;;;2.20;;
15878;SDS011;61999;51.514;14.614;2023-09-30T01:59:12;4.93;;;2.60;;
15878;SDS011;61999;51.514;14.614;2023-09-30T02:01:46;5.07;;;1.93;;
15878;SDS011;61999;51.514;14.614;2023-09-30T02:04:16;2.00;;;1.53;;
15878;SDS011;61999;51.514;14.614;2023-09-30T02:06:56;2.50;;;1.50;;
15878;SDS011;61999;51.514;14.614;2023-09-30T02:09:33;1.50;;;1.20;;
15878;SDS011;61999;51.514;14.614;2023-09-30T02:12:07;1.47;;;1.37;;
15878;SDS011;61999;51.514;14.614;2023-09-30T02:14:42;2.37;;;1.20;;
15878;SDS011;61999;51.514;14.614;2023-09-30T02:17:15;2.20;;;1.13;;
15878;SDS011;61999;51.514;14.614;2023-09-30T02:19:46;3.70;;;1.30;;
15878;SDS011;61999;51.514;14.614;2023-09-30T02:22:17;1.60;;;1.10;;
15878;SDS011;61999;51.514;14.614;2023-09-30T02:24:47;2.30;;;1.07;;
15878;SDS011;61999;51.514;14.614;2023-09-30T02:27:16;2.30;;;1.20;;
15878;SDS011;61999;51.514;14.614;2023-09-30T02:29:44;1.10;;;1.00;;
15878;SDS011;61999;51.514;14.614;2023-09-30T02:32:13;1.17;;;0.97;;
15878;SDS011;61999;51.514;14.614;2023-09-30T02:34:42;1.87;;;0.80;;
15878;SDS011;61999;51.514;14.614;2023-09-30T02:37:10;0.90;;;0.80;;
15878;SDS011;61999;51.514;14.614;2023-09-30T02:39:38;2.50;;;1.20;;
15878;SDS011;61999;51.514;14.614;2023-09-30T02:42:08;1.77;;;0.90;;
15878;SDS011;61999;51.514;14.614;2023-09-30T02:44:36;2.10;;;1.13;;
15878;SDS011;61999;51.514;14.614;2023-09-30T02:47:04;1.10;;;1.00;;
15878;SDS011;61999;51.514;14.614;2023-09-30T02:49:33;2.50;;;1.07;;
15878;SDS011;61999;51.514;14.614;2023-09-30T02:52:01;2.97;;;1.47;;
15878;SDS011;61999;51.514;14.614;2023-09-30T02:54:30;3.10;;;1.30;;
15878;SDS011;61999;51.514;14.614;2023-09-30T02:56:59;1.87;;;1.40;;
15878;SDS011;61999;51.514;14.614;2023-09-30T02:59:31;2.50;;;1.37;;
15878;SDS011;61999;51.514;14.614;2023-09-30T03:02:00;3.17;;;1.10;;
15878;SDS011;61999;51.514;14.614;2023-09-30T03:04:28;3.17;;;1.40;;
15878;SDS011;61999;51.514;14.614;2023-09-30T03:06:57;2.20;;;1.23;;
15878;SDS011;61999;51.514;14.614;2023-09-30T03:09:26;3.17;;;1.50;;
15878;SDS011;61999;51.514;14.614;2023-09-30T03:11:54;4.10;;;1.43;;
15878;SDS011;61999;51.514;14.614;2023-09-30T03:14:27;3.30;;;1.57;;
15878;SDS011;61999;51.514;14.614;2023-09-30T03:17:09;2.30;;;1.40;;
15878;SDS011;61999;51.514;14.614;2023-09-30T03:19:47;3.13;;;1.67;;
15878;SDS011;61999;51.514;14.614;2023-09-30T03:22:38;2.53;;;1.33;;
15878;SDS011;61999;51.514;14.614;2023-09-30T03:25:15;3.20;;;2.13;;
15878;SDS011;61999;51.514;14.614;2023-09-30T03:27:48;2.50;;;1.63;;
15878;SDS011;61999;51.514;14.614;2023-09-30T03:30:22;3.93;;;1.70;;
15878;SDS011;61999;51.514;14.614;2023-09-30T03:32:55;4.43;;;1.83;;
15878;SDS011;61999;51.514;14.614;2023-09-30T03:35:34;2.63;;;1.50;;
15878;SDS011;61999;51.514;14.614;2023-09-30T03:38:24;3.50;;;1.80;;
15878;SDS011;61999;51.514;14.614;2023-09-30T03:40:57;6.07;;;2.07;;
15878;SDS011;61999;51.514;14.614;2023-09-30T03:43:31;3.27;;;1.50;;
15878;SDS011;61999;51.514;14.614;2023-09-30T03:46:05;3.17;;;1.77;;
15878;SDS011;61999;51.514;14.614;2023-09-30T03:48:38;3.80;;;1.90;;
15878;SDS011;61999;51.514;14.614;2023-09-30T03:51:14;4.73;;;1.90;;
15878;SDS011;61999;51.514;14.614;2023-09-30T03:53:45;4.97;;;1.73;;
15878;SDS011;61999;51.514;14.614;2023-09-30T03:56:17;4.07;;;1.40;;
15878;SDS011;61999;51.514;14.614;2023-09-30T03:58:50;4.30;;;2.20;;
15878;SDS011;61999;51.514;14.614;2023-09-30T04:01:24;5.70;;;2.03;;
15878;SDS011;61999;51.514;14.614;2023-09-30T04:04:01;7.70;;;2.20;;
15878;SDS011;61999;51.514;14.614;2023-09-30T04:06:41;5.10;;;1.93;;
15878;SDS011;61999;51.514;14.614;2023-09-30T04:09:14;3.87;;;1.47;;
15878;SDS011;61999;51.514;14.614;2023-09-30T04:11:47;4.43;;;1.93;;
15878;SDS011;61999;51.514;14.614;2023-09-30T04:14:19;4.97;;;1.90;;
15878;SDS011;61999;51.514;14.614;2023-09-30T04:16:55;5.13;;;1.93;;
15878;SDS011;61999;51.514;14.614;2023-09-30T04:19:26;4.97;;;2.13;;
15878;SDS011;61999;51.514;14.614;2023-09-30T04:21:58;4.63;;;2.17;;
15878;SDS011;61999;51.514;14.614;2023-09-30T04:24:32;5.23;;;2.20;;
15878;SDS011;61999;51.514;14.614;2023-09-30T04:27:04;5.70;;;1.80;;
15878;SDS011;61999;51.514;14.614;2023-09-30T04:29:36;3.00;;;1.80;;
15878;SDS011;61999;51.514;14.614;2023-09-30T04:32:10;3.37;;;1.90;;
15878;SDS011;61999;51.514;14.614;2023-09-30T04:34:45;4.63;;;1.77;;
15878;SDS011;61999;51.514;14.614;2023-09-30T04:37:19;3.93;;;1.87;;
15878;SDS011;61999;51.514;14.614;2023-09-30T04:39:51;6.93;;;2.33;;
15878;SDS011;61999;51.514;14.614;2023-09-30T04:42:23;4.20;;;1.63;;
15878;SDS011;61999;51.514;14.614;2023-09-30T04:44:55;5.17;;;1.90;;
15878;SDS011;61999;51.514;14.614;2023-09-30T04:47:29;5.97;;;2.20;;
15878;SDS011;61999;51.514;14.614;2023-09-30T04:50:01;6.63;;;1.83;;
15878;SDS011;61999;51.514;14.614;2023-09-30T04:52:38;7.50;;;2.43;;
15878;SDS011;61999;51.514;14.614;2023-09-30T04:55:09;4.07;;;1.50;;
15878;SDS011;61999;51.514;14.614;2023-09-30T04:57:44;8.80;;;2.73;;
15878;SDS011;61999;51.514;14.614;2023-09-30T05:00:19;7.27;;;2.17;;
15878;SDS011;61999;51.514;14.614;2023-09-30T05:02:54;5.20;;;2.03;;
15878;SDS011;61999;51.514;14.614;2023-09-30T05:05:27;6.00;;;2.60;;
15878;SDS011;61999;51.514;14.614;2023-09-30T05:07:59;5.20;;;1.80;;
15878;SDS011;61999;51.514;14.614;2023-09-30T05:10:31;6.67;;;2.30;;
15878;SDS011;61999;51.514;14.614;2023-09-30T05:13:03;5.30;;;2.50;;
15878;SDS011;61999;51.514;14.614;2023-09-30T05:15:32;4.60;;;2.00;;
15878;SDS011;61999;51.514;14.614;2023-09-30T05:18:06;7.90;;;2.40;;
15878;SDS011;61999;51.514;14.614;2023-09-30T05:20:38;8.50;;;3.20;;
15878;SDS011;61999;51.514;14.614;2023-09-30T05:23:16;8.30;;;2.27;;
15878;SDS011;61999;51.514;14.614;2023-09-30T05:25:45;9.67;;;2.93;;
15878;SDS011;61999;51.514;14.614;2023-09-30T05:28:17;3.90;;;1.83;;
15878;SDS011;61999;51.514;14.614;2023-09-30T05:30:52;7.50;;;2.33;;
15878;SDS011;61999;51.514;14.614;2023-09-30T05:33:25;9.20;;;3.03;;
15878;SDS011;61999;51.514;14.614;2023-09-30T05:35:58;6.20;;;2.63;;
15878;SDS011;61999;51.514;14.614;2023-09-30T05:38:32;6.20;;;2.17;;
15878;SDS011;61999;51.514;14.614;2023-09-30T05:41:05;6.87;;;2.70;;
15878;SDS011;61999;51.514;14.614;2023-09-30T05:43:39;7.03;;;2.30;;
15878;SDS011;61999;51.514;14.614;2023-09-30T05:46:11;6.53;;;2.30;;
15878;SDS011;61999;51.514;14.614;2023-09-30T05:48:41;6.93;;;2.53;;
15878;SDS011;61999;51.514;14.614;2023-09-30T05:51:10;6.17;;;2.90;;
15878;SDS011;61999;51.514;14.614;2023-09-30T05:53:43;5.43;;;2.57;;
15878;SDS011;61999;51.514;14.614;2023-09-30T05:56:15;7.50;;;2.60;;
15878;SDS011;61999;51.514;14.614;2023-09-30T05:58:45;7.10;;;2.40;;
15878;SDS011;61999;51.514;14.614;2023-09-30T06:01:17;6.60;;;2.50;;
15878;SDS011;61999;51.514;14.614;2023-09-30T06:03:51;7.10;;;2.37;;
15878;SDS011;61999;51.514;14.614;2023-09-30T06:06:31;6.27;;;2.43;;
15878;SDS011;61999;51.514;14.614;2023-09-30T06:09:05;8.93;;;3.43;;
15878;SDS011;61999;51.514;14.614;2023-09-30T06:11:40;7.27;;;2.57;;
15878;SDS011;61999;51.514;14.614;2023-09-30T06:14:12;6.27;;;2.23;;
15878;SDS011;61999;51.514;14.614;2023-09-30T06:16:46;8.10;;;2.53;;
15878;SDS011;61999;51.514;14.614;2023-09-30T06:19:25;6.00;;;2.60;;
15878;SDS011;61999;51.514;14.614;2023-09-30T06:21:58;6.60;;;2.37;;
15878;SDS011;61999;51.514;14.614;2023-09-30T06:24:32;6.03;;;2.50;;
15878;SDS011;61999;51.514;14.614;2023-09-30T06:27:06;4.17;;;2.37;;
15878;SDS011;61999;51.514;14.614;2023-09-30T06:29:48;7.27;;;3.30;;
15878;SDS011;61999;51.514;14.614;2023-09-30T06:32:21;8.30;;;2.73;;
15878;SDS011;61999;51.514;14.614;2023-09-30T06:34:53;8.70;;;2.80;;
15878;SDS011;61999;51.514;14.614;2023-09-30T06:37:21;6.90;;;2.67;;
15878;SDS011;61999;51.514;14.614;2023-09-30T06:39:57;10.97;;;3.83;;
15878;SDS011;61999;51.514;14.614;2023-09-30T06:42:28;7.20;;;2.53;;
15878;SDS011;61999;51.514;14.614;2023-09-30T06:45:04;4.50;;;2.40;;
15878;SDS011;61999;51.514;14.614;2023-09-30T06:47:39;7.80;;;2.20;;
15878;SDS011;61999;51.514;14.614;2023-09-30T06:50:15;6.23;;;2.37;;
15878;SDS011;61999;51.514;14.614;2023-09-30T06:52:50;5.53;;;2.77;;
15878;SDS011;61999;51.514;14.614;2023-09-30T06:55:21;6.10;;;2.80;;
15878;SDS011;61999;51.514;14.614;2023-09-30T06:57:55;7.97;;;2.70;;
15878;SDS011;61999;51.514;14.614;2023-09-30T07:00:30;5.50;;;2.20;;
15878;SDS011;61999;51.514;14.614;2023-09-30T07:02:59;9.83;;;3.10;;
15878;SDS011;61999;51.514;14.614;2023-09-30T07:05:30;7.90;;;3.03;;
15878;SDS011;61999;51.514;14.614;2023-09-30T07:08:04;11.43;;;3.33;;
15878;SDS011;61999;51.514;14.614;2023-09-30T07:10:35;6.57;;;2.50;;
15878;SDS011;61999;51.514;14.614;2023-09-30T07:13:05;10.40;;;3.30;;
15878;SDS011;61999;51.514;14.614;2023-09-30T07:15:40;7.13;;;2.53;;
15878;SDS011;61999;51.514;14.614;2023-09-30T07:18:12;8.93;;;2.83;;
15878;SDS011;61999;51.514;14.614;2023-09-30T07:20:47;8.37;;;2.90;;
15878;SDS011;61999;51.514;14.614;2023-09-30T07:23:21;8.43;;;2.90;;
15878;SDS011;61999;51.514;14.614;2023-09-30T07:25:50;6.97;;;2.90;;
15878;SDS011;61999;51.514;14.614;2023-09-30T07:28:24;6.93;;;2.60;;
15878;SDS011;61999;51.514;14.614;2023-09-30T07:30:58;6.33;;;2.50;;
15878;SDS011;61999;51.514;14.614;2023-09-30T07:33:32;8.37;;;3.10;;
15878;SDS011;61999;51.514;14.614;2023-09-30T07:36:10;8.00;;;2.73;;
15878;SDS011;61999;51.514;14.614;2023-09-30T07:38:42;6.83;;;2.20;;
15878;SDS011;61999;51.514;14.614;2023-09-30T07:41:14;4.80;;;2.40;;
15878;SDS011;61999;51.514;14.614;2023-09-30T07:43:57;12.80;;;3.70;;
15878;SDS011;61999;51.514;14.614;2023-09-30T07:46:32;6.90;;;2.50;;
15878;SDS011;61999;51.514;14.614;2023-09-30T07:49:06;6.40;;;2.50;;
15878;SDS011;61999;51.514;14.614;2023-09-30T07:51:48;7.23;;;3.13;;
15878;SDS011;61999;51.514;14.614;2023-09-30T07:54:22;9.37;;;3.17;;
15878;SDS011;61999;51.514;14.614;2023-09-30T07:56:57;7.97;;;2.77;;
15878;SDS011;61999;51.514;14.614;2023-09-30T07:59:36;6.10;;;2.50;;
15878;SDS011;61999;51.514;14.614;2023-09-30T08:02:06;8.33;;;3.13;;
15878;SDS011;61999;51.514;14.614;2023-09-30T08:04:36;9.13;;;2.67;;
15878;SDS011;61999;51.514;14.614;2023-09-30T08:07:12;10.60;;;3.37;;
15878;SDS011;61999;51.514;14.614;2023-09-30T08:09:44;8.13;;;3.20;;
15878;SDS011;61999;51.514;14.614;2023-09-30T08:12:18;4.80;;;2.27;;
15878;SDS011;61999;51.514;14.614;2023-09-30T08:14:51;7.63;;;2.47;;
15878;SDS011;61999;51.514;14.614;2023-09-30T08:17:24;8.33;;;3.23;;
15878;SDS011;61999;51.514;14.614;2023-09-30T08:20:01;6.17;;;2.40;;
15878;SDS011;61999;51.514;14.614;2023-09-30T08:22:35;6.30;;;2.30;;
15878;SDS011;61999;51.514;14.614;2023-09-30T08:25:05;6.60;;;2.67;;
15878;SDS011;61999;51.514;14.614;2023-09-30T08:27:38;6.70;;;2.77;;
15878;SDS011;61999;51.514;14.614;2023-09-30T08:30:10;3.87;;;2.13;;
15878;SDS011;61999;51.514;14.614;2023-09-30T08:32:41;6.10;;;2.30;;
15878;SDS011;61999;51.514;14.614;2023-09-30T08:35:16;5.93;;;2.53;;
15878;SDS011;61999;51.514;14.614;2023-09-30T08:37:51;6.17;;;2.50;;
15878;SDS011;61999;51.514;14.614;2023-09-30T08:40:23;5.70;;;2.03;;
15878;SDS011;61999;51.514;14.614;2023-09-30T08:42:58;5.10;;;2.30;;
15878;SDS011;61999;51.514;14.614;2023-09-30T08:45:41;6.90;;;2.50;;
15878;SDS011;61999;51.514;14.614;2023-09-30T08:48:18;7.40;;;2.37;;
15878;SDS011;61999;51.514;14.614;2023-09-30T08:50:56;7.83;;;2.77;;
15878;SDS011;61999;51.514;14.614;2023-09-30T08:53:34;5.77;;;2.40;;
15878;SDS011;61999;51.514;14.614;2023-09-30T08:56:04;7.87;;;2.33;;
15878;SDS011;61999;51.514;14.614;2023-09-30T08:58:38;5.27;;;2.07;;
15878;SDS011;61999;51.514;14.614;2023-09-30T09:01:10;6.53;;;2.53;;
15878;SDS011;61999;51.514;14.614;2023-09-30T09:03:48;5.80;;;2.37;;
15878;SDS011;61999;51.514;14.614;2023-09-30T09:06:19;6.77;;;2.77;;
15878;SDS011;61999;51.514;14.614;2023-09-30T09:08:56;8.37;;;2.33;;
15878;SDS011;61999;51.514;14.614;2023-09-30T09:11:49;6.33;;;2.23;;
15878;SDS011;61999;51.514;14.614;2023-09-30T09:14:36;9.10;;;2.63;;
15878;SDS011;61999;51.514;14.614;2023-09-30T09:17:15;5.50;;;1.97;;
15878;SDS011;61999;51.514;14.614;2023-09-30T09:19:48;5.73;;;2.30;;
15878;SDS011;61999;51.514;14.614;2023-09-30T09:22:40;5.60;;;1.90;;
15878;SDS011;61999;51.514;14.614;2023-09-30T09:25:17;3.30;;;1.80;;
15878;SDS011;61999;51.514;14.614;2023-09-30T09:27:55;6.40;;;1.93;;
15878;SDS011;61999;51.514;14.614;2023-09-30T09:30:30;3.63;;;1.97;;
15878;SDS011;61999;51.514;14.614;2023-09-30T09:32:59;6.27;;;2.37;;
15878;SDS011;61999;51.514;14.614;2023-09-30T09:35:34;5.33;;;2.10;;
15878;SDS011;61999;51.514;14.614;2023-09-30T09:38:04;4.93;;;1.80;;
15878;SDS011;61999;51.514;14.614;2023-09-30T09:40:39;4.33;;;1.87;;
15878;SDS011;61999;51.514;14.614;2023-09-30T09:43:12;8.63;;;3.03;;
15878;SDS011;61999;51.514;14.614;2023-09-30T09:45:48;8.87;;;2.27;;
15878;SDS011;61999;51.514;14.614;2023-09-30T09:48:25;4.63;;;1.77;;
15878;SDS011;61999;51.514;14.614;2023-09-30T09:50:56;5.30;;;2.23;;
15878;SDS011;61999;51.514;14.614;2023-09-30T09:53:30;6.90;;;2.43;;
15878;SDS011;61999;51.514;14.614;2023-09-30T09:56:07;4.43;;;2.10;;
15878;SDS011;61999;51.514;14.614;2023-09-30T09:58:40;4.50;;;1.67;;
15878;SDS011;61999;51.514;14.614;2023-09-30T10:01:21;7.93;;;2.23;;
15878;SDS011;61999;51.514;14.614;2023-09-30T10:03:52;5.83;;;2.30;;
15878;SDS011;61999;51.514;14.614;2023-09-30T10:06:30;3.87;;;1.80;;
15878;SDS011;61999;51.514;14.614;2023-09-30T10:09:13;4.50;;;1.70;;
15878;SDS011;61999;51.514;14.614;2023-09-30T10:11:50;4.03;;;1.80;;
15878;SDS011;61999;51.514;14.614;2023-09-30T10:14:40;4.33;;;1.77;;
15878;SDS011;61999;51.514;14.614;2023-09-30T10:17:11;4.90;;;1.97;;
15878;SDS011;61999;51.514;14.614;2023-09-30T10:22:35;3.70;;;1.97;;
15878;SDS011;61999;51.514;14.614;2023-09-30T10:31:14;5.97;;;2.30;;
15878;SDS011;61999;51.514;14.614;2023-09-30T10:36:49;4.40;;;2.90;;
15878;SDS011;61999;51.514;14.614;2023-09-30T10:42:46;6.43;;;3.80;;
15878;SDS011;61999;51.514;14.614;2023-09-30T10:45:43;6.20;;;2.63;;
15878;SDS011;61999;51.514;14.614;2023-09-30T10:48:34;5.07;;;2.23;;
15878;SDS011;61999;51.514;14.614;2023-09-30T10:51:14;4.43;;;2.37;;
15878;SDS011;61999;51.514;14.614;2023-09-30T10:53:48;5.70;;;3.10;;
15878;SDS011;61999;51.514;14.614;2023-09-30T10:56:37;4.87;;;3.17;;
15878;SDS011;61999;51.514;14.614;2023-09-30T10:59:18;4.20;;;2.33;;
15878;SDS011;61999;51.514;14.614;2023-09-30T11:01:56;8.07;;;3.20;;
15878;SDS011;61999;51.514;14.614;2023-09-30T11:04:27;5.77;;;2.63;;
15878;SDS011;61999;51.514;14.614;2023-09-30T11:07:02;6.53;;;2.13;;
15878;SDS011;61999;51.514;14.614;2023-09-30T11:09:33;4.70;;;2.90;;
15878;SDS011;61999;51.514;14.614;2023-09-30T11:12:12;4.67;;;2.30;;
15878;SDS011;61999;51.514;14.614;2023-09-30T11:14:44;4.50;;;1.70;;
15878;SDS011;61999;51.514;14.614;2023-09-30T11:17:23;5.27;;;2.57;;
15878;SDS011;61999;51.514;14.614;2023-09-30T11:19:59;3.07;;;2.00;;
15878;SDS011;61999;51.514;14.614;2023-09-30T11:22:35;4.40;;;1.73;;
15878;SDS011;61999;51.514;14.614;2023-09-30T11:25:06;4.60;;;2.07;;
15878;SDS011;61999;51.514;14.614;2023-09-30T11:27:48;6.80;;;2.60;;
15878;SDS011;61999;51.514;14.614;2023-09-30T11:30:26;6.17;;;2.30;;
15878;SDS011;61999;51.514;14.614;2023-09-30T11:32:59;4.23;;;2.50;;
15878;SDS011;61999;51.514;14.614;2023-09-30T11:35:28;7.30;;;3.30;;
15878;SDS011;61999;51.514;14.614;2023-09-30T11:38:00;5.03;;;3.27;;
15878;SDS011;61999;51.514;14.614;2023-09-30T11:40:33;5.03;;;1.90;;
15878;SDS011;61999;51.514;14.614;2023-09-30T11:43:08;5.57;;;2.70;;
15878;SDS011;61999;51.514;14.614;2023-09-30T11:45:44;4.80;;;3.00;;
15878;SDS011;61999;51.514;14.614;2023-09-30T11:48:23;4.23;;;2.20;;
15878;SDS011;61999;51.514;14.614;2023-09-30T11:51:15;5.13;;;2.27;;
15878;SDS011;61999;51.514;14.614;2023-09-30T11:53:49;4.80;;;2.47;;
15878;SDS011;61999;51.514;14.614;2023-09-30T11:56:32;5.07;;;2.50;;
15878;SDS011;61999;51.514;14.614;2023-09-30T12:01:59;6.13;;;2.10;;
15878;SDS011;61999;51.514;14.614;2023-09-30T12:04:59;4.67;;;3.00;;
15878;SDS011;61999;51.514;14.614;2023-09-30T12:07:53;3.90;;;2.70;;
15878;SDS011;61999;51.514;14.614;2023-09-30T12:10:40;5.47;;;2.80;;
15878;SDS011;61999;51.514;14.614;2023-09-30T12:13:24;4.87;;;1.90;;
15878;SDS011;61999;51.514;14.614;2023-09-30T12:16:17;5.57;;;3.00;;
15878;SDS011;61999;51.514;14.614;2023-09-30T12:18:55;5.67;;;2.30;;
15878;SDS011;61999;51.514;14.614;2023-09-30T12:21:48;4.03;;;2.10;;
15878;SDS011;61999;51.514;14.614;2023-09-30T12:25:02;4.53;;;1.90;;
15878;SDS011;61999;51.514;14.614;2023-09-30T12:27:45;3.17;;;1.73;;
15878;SDS011;61999;51.514;14.614;2023-09-30T12:30:27;3.20;;;1.83;;
15878;SDS011;61999;51.514;14.614;2023-09-30T12:33:09;6.37;;;4.43;;
15878;SDS011;61999;51.514;14.614;2023-09-30T12:35:43;6.30;;;4.77;;
15878;SDS011;61999;51.514;14.614;2023-09-30T12:38:13;3.43;;;2.23;;
15878;SDS011;61999;51.514;14.614;2023-09-30T12:40:43;3.17;;;1.70;;
15878;SDS011;61999;51.514;14.614;2023-09-30T12:43:17;3.60;;;2.23;;
15878;SDS011;61999;51.514;14.614;2023-09-30T12:45:50;7.45;;;5.43;;
15878;SDS011;61999;51.514;14.614;2023-09-30T12:48:21;5.97;;;4.53;;
15878;SDS011;61999;51.514;14.614;2023-09-30T12:50:52;3.13;;;1.92;;
15878;SDS011;61999;51.514;14.614;2023-09-30T12:53:42;3.53;;;2.40;;
15878;SDS011;61999;51.514;14.614;2023-09-30T12:56:12;6.75;;;4.47;;
15878;SDS011;61999;51.514;14.614;2023-09-30T12:58:42;5.18;;;2.45;;
15878;SDS011;61999;51.514;14.614;2023-09-30T13:01:11;6.28;;;4.93;;
15878;SDS011;61999;51.514;14.614;2023-09-30T13:03:47;4.03;;;2.60;;
15878;SDS011;61999;51.514;14.614;2023-09-30T13:06:17;4.13;;;1.52;;
15878;SDS011;61999;51.514;14.614;2023-09-30T13:08:49;2.75;;;1.48;;
15878;SDS011;61999;51.514;14.614;2023-09-30T13:11:19;4.70;;;2.83;;
15878;SDS011;61999;51.514;14.614;2023-09-30T13:13:48;4.05;;;1.63;;
15878;SDS011;61999;51.514;14.614;2023-09-30T13:16:17;3.40;;;2.00;;
15878;SDS011;61999;51.514;14.614;2023-09-30T13:18:46;6.00;;;4.10;;
15878;SDS011;61999;51.514;14.614;2023-09-30T13:21:19;5.65;;;4.40;;
15878;SDS011;61999;51.514;14.614;2023-09-30T13:23:50;4.18;;;3.10;;
15878;SDS011;61999;51.514;14.614;2023-09-30T13:26:19;3.85;;;2.17;;
15878;SDS011;61999;51.514;14.614;2023-09-30T13:28:48;4.60;;;3.00;;
15878;SDS011;61999;51.514;14.614;2023-09-30T13:31:18;4.38;;;2.60;;
15878;SDS011;61999;51.514;14.614;2023-09-30T13:33:47;4.47;;;2.83;;
15878;SDS011;61999;51.514;14.614;2023-09-30T13:36:17;5.90;;;2.80;;
15878;SDS011;61999;51.514;14.614;2023-09-30T13:38:47;5.43;;;3.93;;
15878;SDS011;61999;51.514;14.614;2023-09-30T13:41:27;5.23;;;3.33;;
15878;SDS011;61999;51.514;14.614;2023-09-30T13:43:56;5.37;;;3.53;;
15878;SDS011;61999;51.514;14.614;2023-09-30T13:46:26;4.87;;;2.73;;
15878;SDS011;61999;51.514;14.614;2023-09-30T13:48:55;5.77;;;2.03;;
15878;SDS011;61999;51.514;14.614;2023-09-30T13:51:25;4.93;;;2.53;;
15878;SDS011;61999;51.514;14.614;2023-09-30T13:53:53;3.83;;;2.80;;
15878;SDS011;61999;51.514;14.614;2023-09-30T13:56:23;3.70;;;2.20;;
15878;SDS011;61999;51.514;14.614;2023-09-30T13:58:53;4.53;;;2.17;;
15878;SDS011;61999;51.514;14.614;2023-09-30T14:01:22;3.47;;;2.00;;
15878;SDS011;61999;51.514;14.614;2023-09-30T14:03:51;4.67;;;2.83;;
15878;SDS011;61999;51.514;14.614;2023-09-30T14:06:24;3.70;;;2.33;;
15878;SDS011;61999;51.514;14.614;2023-09-30T14:08:56;3.83;;;1.67;;
15878;SDS011;61999;51.514;14.614;2023-09-30T14:11:26;4.90;;;2.43;;
15878;SDS011;61999;51.514;14.614;2023-09-30T14:13:57;3.57;;;2.30;;
15878;SDS011;61999;51.514;14.614;2023-09-30T14:16:27;3.10;;;1.30;;
15878;SDS011;61999;51.514;14.614;2023-09-30T14:19:01;3.50;;;1.67;;
15878;SDS011;61999;51.514;14.614;2023-09-30T14:21:37;3.77;;;1.73;;
15878;SDS011;61999;51.514;14.614;2023-09-30T14:24:08;3.17;;;1.63;;
15878;SDS011;61999;51.514;14.614;2023-09-30T14:26:39;3.23;;;1.23;;
15878;SDS011;61999;51.514;14.614;2023-09-30T14:29:08;2.33;;;1.57;;
15878;SDS011;61999;51.514;14.614;2023-09-30T14:31:38;2.70;;;1.40;;
15878;SDS011;61999;51.514;14.614;2023-09-30T14:34:16;4.27;;;1.33;;
15878;SDS011;61999;51.514;14.614;2023-09-30T14:36:46;4.20;;;1.70;;
15878;SDS011;61999;51.514;14.614;2023-09-30T14:39:15;3.17;;;1.80;;
15878;SDS011;61999;51.514;14.614;2023-09-30T14:41:50;2.70;;;1.43;;
15878;SDS011;61999;51.514;14.614;2023-09-30T14:44:20;4.37;;;1.70;;
15878;SDS011;61999;51.514;14.614;2023-09-30T14:46:50;2.80;;;1.73;;
15878;SDS011;61999;51.514;14.614;2023-09-30T14:49:19;4.77;;;2.13;;
15878;SDS011;61999;51.514;14.614;2023-09-30T14:51:48;4.83;;;2.00;;
15878;SDS011;61999;51.514;14.614;2023-09-30T14:54:16;2.63;;;1.43;;
15878;SDS011;61999;51.514;14.614;2023-09-30T14:56:46;3.90;;;1.70;;
15878;SDS011;61999;51.514;14.614;2023-09-30T14:59:16;3.53;;;1.50;;
15878;SDS011;61999;51.514;14.614;2023-09-30T15:01:45;2.17;;;1.40;;
15878;SDS011;61999;51.514;14.614;2023-09-30T15:04:14;4.57;;;2.07;;
15878;SDS011;61999;51.514;14.614;2023-09-30T15:06:43;3.47;;;1.70;;
15878;SDS011;61999;51.514;14.614;2023-09-30T15:09:12;4.93;;;1.30;;
15878;SDS011;61999;51.514;14.614;2023-09-30T15:11:41;3.97;;;1.30;;
15878;SDS011;61999;51.514;14.614;2023-09-30T15:14:11;2.40;;;1.30;;
15878;SDS011;61999;51.514;14.614;2023-09-30T15:16:42;2.97;;;1.40;;
15878;SDS011;61999;51.514;14.614;2023-09-30T15:19:11;4.13;;;1.20;;
15878;SDS011;61999;51.514;14.614;2023-09-30T15:21:46;2.03;;;1.00;;
15878;SDS011;61999;51.514;14.614;2023-09-30T15:24:16;1.80;;;1.17;;
15878;SDS011;61999;51.514;14.614;2023-09-30T15:26:47;3.60;;;1.23;;
15878;SDS011;61999;51.514;14.614;2023-09-30T15:29:16;3.20;;;1.50;;
15878;SDS011;61999;51.514;14.614;2023-09-30T15:31:50;4.67;;;1.43;;
15878;SDS011;61999;51.514;14.614;2023-09-30T15:34:23;2.40;;;1.10;;